Triton — JD2765 — position and weather

sailwx.info

Track history (hours):
 
Tides and Currents Weather Stations Pressure Air Temp Water Temp Dewpoint Dewpoint Depression Visibility Wind Speed Wind Dir Waves Ship Positions

Triton

Last reported at 2017-Sep-20 20:25 UTC. Time now 2017-Sep-24 04:57 UTC.
Position N 34°35' E 134°51'.

Length 42 m; draft 3.5 m.

Type: Tug. MMSI: 431000673.

Date/timePositionNaut miles runAvg speedWind from/ knotsBaromVisibWave heightAir tempDewpointWater temp
2017-Sep-20 20:25N 34°35' E 134°51'614.3
2017-Sep-20 20:00N 34°37' E 134°57'5 9.0
2017-Sep-20 19:30N 34°37' E 135°03'4 7.5
2017-Sep-20 19:01N 34°35' E 135°07'3 5.9
2017-Sep-20 18:31N 34°33' E 135°09'611.3
2017-Sep-20 17:59N 34°28' E 135°06'711.0
2017-Sep-20 17:21N 34°21' E 135°02'512.0
2017-Sep-20 16:56N 34°17' E 134°60'511.7
2017-Sep-20 16:30N 34°12' E 134°60'3 5.2
2017-Sep-20 16:00N 34°12' E 135°03'4 8.8
2017-Sep-20 15:30N 34°13' E 135°08'1 1.1
2017-Sep-20 15:00N 34°13' E 135°09'0 0.0
2017-Sep-20 14:00N 34°13' E 135°09'0 0.0
2017-Sep-20 13:30N 34°13' E 135°09'0 0.0
2017-Sep-20 13:00N 34°13' E 135°09'0 0.0
2017-Sep-20 12:30N 34°13' E 135°09'0 0.0
2017-Sep-20 12:00N 34°13' E 135°09'0 0.0
2017-Sep-20 11:30N 34°13' E 135°09'0 0.0
2017-Sep-20 11:00N 34°13' E 135°09'0 0.0
2017-Sep-20 10:30N 34°13' E 135°09'0 0.0
2017-Sep-20 10:00N 34°13' E 135°09'0 0.0
2017-Sep-20 09:30N 34°13' E 135°09'0 0.0
2017-Sep-20 09:00N 34°13' E 135°09'0 0.0
2017-Sep-20 08:30N 34°13' E 135°09'0 0.0
2017-Sep-20 08:00N 34°13' E 135°09'0 0.0
2017-Sep-20 07:30N 34°13' E 135°09'0 0.0
2017-Sep-20 07:00N 34°13' E 135°09'0 0.0
2017-Sep-20 06:30N 34°13' E 135°09'0 0.0
2017-Sep-20 06:00N 34°13' E 135°09'0 0.0
2017-Sep-20 05:30N 34°13' E 135°09'0 0.0
2017-Sep-20 05:00N 34°13' E 135°09'0 0.0
2017-Sep-20 04:30N 34°13' E 135°09'0 0.0
2017-Sep-20 04:00N 34°13' E 135°09'0 0.0
2017-Sep-20 03:30N 34°13' E 135°09'0 0.0
2017-Sep-20 03:00N 34°13' E 135°09'0 0.0
2017-Sep-20 02:30N 34°13' E 135°09'0 0.0
2017-Sep-20 02:00N 34°13' E 135°09'0 0.0
2017-Sep-20 01:30N 34°13' E 135°09'0 0.0
2017-Sep-20 01:00N 34°13' E 135°09'0 0.0
2017-Sep-20 00:30N 34°13' E 135°09'0 0.0
2017-Sep-20 00:00N 34°13' E 135°09'0 0.0
2017-Sep-19 23:30N 34°13' E 135°09'0 0.0
2017-Sep-19 23:00N 34°13' E 135°09'0 0.0
2017-Sep-19 22:30N 34°13' E 135°09'0 0.0
2017-Sep-19 22:00N 34°13' E 135°09'0 0.0
2017-Sep-19 21:30N 34°13' E 135°09'0 0.0
2017-Sep-19 21:00N 34°13' E 135°09'0 0.0
2017-Sep-19 20:30N 34°13' E 135°09'0 0.0
2017-Sep-19 20:00N 34°13' E 135°09'0 0.0
2017-Sep-19 19:30N 34°13' E 135°09'0 0.0
2017-Sep-19 19:00N 34°13' E 135°09'0 0.0
2017-Sep-19 18:30N 34°13' E 135°09'0 0.0
2017-Sep-19 18:00N 34°13' E 135°09'0 0.0
2017-Sep-19 17:30N 34°13' E 135°09'0 0.0
2017-Sep-19 17:00N 34°13' E 135°09'0 0.0
2017-Sep-19 16:30N 34°13' E 135°09'0 0.0
2017-Sep-19 16:00N 34°13' E 135°09'0 0.0
2017-Sep-19 15:30N 34°13' E 135°09'0 0.0
2017-Sep-19 15:00N 34°13' E 135°09'0 0.0
2017-Sep-19 14:30N 34°13' E 135°09'0 0.0
2017-Sep-19 14:00N 34°13' E 135°09'0 0.0
2017-Sep-19 13:30N 34°13' E 135°09'0 0.0
2017-Sep-19 13:00N 34°13' E 135°09'0 0.0
2017-Sep-19 12:30N 34°13' E 135°09'0 0.0
2017-Sep-19 12:00N 34°13' E 135°09'0 0.0
2017-Sep-19 11:30N 34°13' E 135°09'0 0.0
2017-Sep-19 11:00N 34°13' E 135°09'0 0.0
2017-Sep-19 10:30N 34°13' E 135°09'0 0.0
2017-Sep-19 10:00N 34°13' E 135°09'0 0.0
2017-Sep-19 09:30N 34°13' E 135°09'0 0.0
2017-Sep-19 09:00N 34°13' E 135°09'2 4.4
2017-Sep-19 08:30N 34°12' E 135°06'714.2
2017-Sep-19 08:00N 34°07' E 135°01'10 2.0
2017-Sep-19 03:17N 34°04' E 134°50'310.5
2017-Sep-19 02:57N 34°06' E 134°53'511.3
2017-Sep-19 02:30N 34°10' E 134°57'511.0
2017-Sep-19 02:00N 34°14' E 135°01'811.5
2017-Sep-19 01:21N 34°20' E 135°06'411.3
2017-Sep-19 00:59N 34°22' E 135°11'510.8
2017-Sep-19 00:30N 34°25' E 135°16'510.7
2017-Sep-19 00:00N 34°29' E 135°20'5 9.6
2017-Sep-18 23:30N 34°33' E 135°24'2 4.5
2017-Sep-18 23:00N 34°33' E 135°27'0 0.0
2017-Sep-18 22:26N 34°33' E 135°27'0 0.0
2017-Sep-18 22:00N 34°33' E 135°27'0 0.0
2017-Sep-18 21:30N 34°33' E 135°27'0 0.0
2017-Sep-18 21:00N 34°33' E 135°27'0 0.0
2017-Sep-18 20:30N 34°33' E 135°27'0 0.0
2017-Sep-18 20:00N 34°33' E 135°27'0 0.0
2017-Sep-18 19:30N 34°33' E 135°27'0 0.0
2017-Sep-18 19:00N 34°33' E 135°27'0 0.0
2017-Sep-18 18:30N 34°33' E 135°27'0 0.0
2017-Sep-18 18:00N 34°33' E 135°27'0 0.0
2017-Sep-18 17:30N 34°33' E 135°27'0 0.0
2017-Sep-18 17:00N 34°33' E 135°27'0 0.0
2017-Sep-18 16:30N 34°33' E 135°27'0 0.0
2017-Sep-18 16:00N 34°33' E 135°27'0 0.0
2017-Sep-18 15:30N 34°33' E 135°27'0 0.0
2017-Sep-18 15:00N 34°33' E 135°27'0 0.0
2017-Sep-18 14:30N 34°33' E 135°27'0 0.0
2017-Sep-18 14:00N 34°33' E 135°27'0 0.0
2017-Sep-18 13:30N 34°33' E 135°27'0 0.0
2017-Sep-18 13:00N 34°33' E 135°27'0 0.0
2017-Sep-18 12:30N 34°33' E 135°27'0 0.0
2017-Sep-18 12:00N 34°33' E 135°27'0 0.0
2017-Sep-18 11:30N 34°33' E 135°27'0 0.0
2017-Sep-18 11:00N 34°33' E 135°27'0 0.0
2017-Sep-18 10:30N 34°33' E 135°27'0 0.0
2017-Sep-18 10:00N 34°33' E 135°27'3 6.5
2017-Sep-18 09:31N 34°35' E 135°24'4 6.6
2017-Sep-18 08:55N 34°38' E 135°26'0 0.9
2017-Sep-18 08:30N 34°38' E 135°27'2 4.9
2017-Sep-18 08:00N 34°38' E 135°24'4 7.8
2017-Sep-18 07:30N 34°34' E 135°24'2 4.9
2017-Sep-18 07:00N 34°33' E 135°27'0 0.0
2017-Sep-18 06:30N 34°33' E 135°27'0 0.0
2017-Sep-18 06:00N 34°33' E 135°27'0 0.0
2017-Sep-18 05:27N 34°33' E 135°27'0 0.0
2017-Sep-18 05:00N 34°33' E 135°27'3 5.4
2017-Sep-18 04:30N 34°32' E 135°24'2 3.1
2017-Sep-18 04:00N 34°31' E 135°23'1 1.5
2017-Sep-18 03:30N 34°32' E 135°23'3 6.0
2017-Sep-18 03:00N 34°33' E 135°26'1 1.3
2017-Sep-18 02:30N 34°33' E 135°27'0 0.0
2017-Sep-18 02:00N 34°33' E 135°27'0 0.0
2017-Sep-18 01:30N 34°33' E 135°27'0 0.0
2017-Sep-18 01:00N 34°33' E 135°27'0 0.0
2017-Sep-18 00:30N 34°33' E 135°27'0 0.0
2017-Sep-18 00:00N 34°33' E 135°27'0 0.0
2017-Sep-17 23:30N 34°33' E 135°27'0 0.0
2017-Sep-17 23:00N 34°33' E 135°27'0 0.0
2017-Sep-17 22:30N 34°33' E 135°27'0 0.0
2017-Sep-17 22:00N 34°33' E 135°27'0 0.0
2017-Sep-17 21:30N 34°33' E 135°27'0 0.0
2017-Sep-17 21:00N 34°33' E 135°27'0 0.0
2017-Sep-17 20:30N 34°33' E 135°27'0 0.0
2017-Sep-17 20:00N 34°33' E 135°27'0 0.0
2017-Sep-17 19:30N 34°33' E 135°27'0 0.0
2017-Sep-17 19:00N 34°33' E 135°27'0 0.0
2017-Sep-17 18:30N 34°33' E 135°27'0 0.0
2017-Sep-17 18:00N 34°33' E 135°27'0 0.0
2017-Sep-17 17:30N 34°33' E 135°27'0 0.0
2017-Sep-17 17:00N 34°33' E 135°27'0 0.0
2017-Sep-17 16:30N 34°33' E 135°27'0 0.0
2017-Sep-17 16:00N 34°33' E 135°27'0 0.0
2017-Sep-17 15:30N 34°33' E 135°27'0 0.0
2017-Sep-17 15:00N 34°33' E 135°27'0 0.0
2017-Sep-17 14:30N 34°33' E 135°27'0 0.0
2017-Sep-17 14:00N 34°33' E 135°27'0 0.0
2017-Sep-17 13:30N 34°33' E 135°27'0 0.0
2017-Sep-17 13:00N 34°33' E 135°27'0 0.0
2017-Sep-17 12:30N 34°33' E 135°27'0 0.0
2017-Sep-17 12:00N 34°33' E 135°27'0 0.0
2017-Sep-17 11:30N 34°33' E 135°27'0 0.0
2017-Sep-17 11:00N 34°33' E 135°27'0 0.0
2017-Sep-17 10:30N 34°33' E 135°27'0 0.0
2017-Sep-17 10:00N 34°33' E 135°27'0 0.0
2017-Sep-17 09:30N 34°33' E 135°27'0 0.0
2017-Sep-17 09:00N 34°33' E 135°27'0 0.0
2017-Sep-17 08:30N 34°33' E 135°27'0 0.0
2017-Sep-17 08:00N 34°33' E 135°27'0 0.0
2017-Sep-17 07:30N 34°33' E 135°27'0 0.0
2017-Sep-17 07:00N 34°33' E 135°27'0 0.0
2017-Sep-17 06:30N 34°33' E 135°27'0 0.0
2017-Sep-17 06:00N 34°33' E 135°27'0 0.0
2017-Sep-17 05:30N 34°33' E 135°27'0 0.0
2017-Sep-17 05:00N 34°33' E 135°27'0 0.0
2017-Sep-17 04:30N 34°33' E 135°27'0 0.0
2017-Sep-17 04:00N 34°33' E 135°27'0 0.0
2017-Sep-17 03:30N 34°33' E 135°27'0 0.0
2017-Sep-17 03:00N 34°33' E 135°27'0 0.0
2017-Sep-17 02:30N 34°33' E 135°27'0 0.0
2017-Sep-17 02:00N 34°33' E 135°27'0 0.0
2017-Sep-17 01:30N 34°33' E 135°27'0 0.0
2017-Sep-17 01:00N 34°33' E 135°27'0 0.0
2017-Sep-17 00:29N 34°33' E 135°27'3 6.3
2017-Sep-16 23:57N 34°31' E 135°23'0 1.1
2017-Sep-16 23:31N 34°31' E 135°23'3 5.7
2017-Sep-16 23:00N 34°33' E 135°25'2 3.4
2017-Sep-16 22:30N 34°33' E 135°27'0 0.0
2017-Sep-16 22:00N 34°33' E 135°27'0 0.0
2017-Sep-16 21:30N 34°33' E 135°27'0 0.0
2017-Sep-16 21:00N 34°33' E 135°27'0 0.0
2017-Sep-16 20:30N 34°33' E 135°27'0 0.0
2017-Sep-16 20:00N 34°33' E 135°27'0 0.0
2017-Sep-16 19:30N 34°33' E 135°27'0 0.0
2017-Sep-16 19:00N 34°33' E 135°27'0 0.0
2017-Sep-16 18:30N 34°33' E 135°27'0 0.0
2017-Sep-16 18:00N 34°33' E 135°27'0 0.0
2017-Sep-16 17:30N 34°33' E 135°27'0 0.0
2017-Sep-16 17:00N 34°33' E 135°27'0 0.0
2017-Sep-16 16:30N 34°33' E 135°27'0 0.0
2017-Sep-16 16:00N 34°33' E 135°27'0 0.0
2017-Sep-16 15:30N 34°33' E 135°27'0 0.0
2017-Sep-16 15:00N 34°33' E 135°27'0 0.0
2017-Sep-16 14:30N 34°33' E 135°27'0 0.0
2017-Sep-16 14:00N 34°33' E 135°27'0 0.0
2017-Sep-16 13:30N 34°33' E 135°27'0 0.0
2017-Sep-16 13:00N 34°33' E 135°27'1 2.7
2017-Sep-16 12:30N 34°33' E 135°25'712.9
2017-Sep-16 11:59N 34°29' E 135°19'713.1
2017-Sep-16 11:29N 34°24' E 135°14'713.2
2017-Sep-16 10:59N 34°21' E 135°07'613.0
2017-Sep-16 10:30N 34°16' E 135°02'714.0
2017-Sep-16 10:00N 34°10' E 134°58'3 0.1
2017-Sep-15 02:22N 34°11' E 134°54'512.7
2017-Sep-15 02:00N 34°14' E 134°59'711.4
2017-Sep-15 01:23N 34°19' E 135°05'511.4
2017-Sep-15 00:59N 34°22' E 135°09'611.6
2017-Sep-15 00:28N 34°25' E 135°15'511.4
2017-Sep-14 23:59N 34°29' E 135°19'510.8
2017-Sep-14 23:30N 34°33' E 135°24'2 4.9
2017-Sep-14 23:00N 34°33' E 135°27'0 0.0
2017-Sep-14 22:23N 34°33' E 135°27'0 0.0
2017-Sep-14 21:49N 34°33' E 135°27'0 0.0
2017-Sep-14 21:18N 34°33' E 135°27'0 0.0
2017-Sep-14 20:58N 34°33' E 135°27'0 0.0
2017-Sep-14 20:29N 34°33' E 135°27'0 0.0
2017-Sep-14 19:59N 34°33' E 135°27'0 0.0
2017-Sep-14 14:19N 34°33' E 135°27'0 0.0
2017-Sep-14 13:57N 34°33' E 135°27'0 0.0
2017-Sep-14 13:28N 34°33' E 135°27'0 0.0
2017-Sep-14 13:00N 34°33' E 135°27'0 0.0
2017-Sep-14 12:30N 34°33' E 135°27'0 0.0
2017-Sep-14 12:00N 34°33' E 135°27'0 0.0
2017-Sep-14 11:30N 34°33' E 135°27'0 0.0
2017-Sep-14 11:00N 34°33' E 135°27'0 0.0
2017-Sep-14 09:17N 34°33' E 135°27'0 0.0
2017-Sep-14 07:50N 34°33' E 135°27'0 0.0
2017-Sep-14 07:30N 34°33' E 135°27'0 0.0
2017-Sep-13 21:24N 34°33' E 135°27'0 0.0
2017-Sep-13 20:57N 34°33' E 135°27'0 0.0
2017-Sep-13 20:30N 34°33' E 135°27'0 0.0
2017-Sep-13 19:58N 34°33' E 135°27'0 0.0
2017-Sep-13 19:30N 34°33' E 135°27'0 0.0
2017-Sep-13 18:09N 34°33' E 135°27'0 0.0
2017-Sep-13 18:00N 34°33' E 135°27'0 0.0
2017-Sep-13 17:30N 34°33' E 135°27'0 0.0
2017-Sep-13 17:00N 34°33' E 135°27'0 0.0
2017-Sep-13 16:26N 34°33' E 135°27'0 0.0
2017-Sep-13 15:55N 34°33' E 135°27'0 0.0
2017-Sep-13 15:30N 34°33' E 135°27'0 0.0
2017-Sep-13 15:00N 34°33' E 135°27'0 0.0
2017-Sep-13 14:30N 34°33' E 135°27'0 0.0
2017-Sep-13 13:59N 34°33' E 135°27'0 0.0
2017-Sep-13 13:29N 34°33' E 135°27'0 0.0
2017-Sep-13 13:00N 34°33' E 135°27'0 0.0
2017-Sep-13 12:27N 34°33' E 135°27'0 0.0
2017-Sep-13 12:00N 34°33' E 135°27'0 0.0
2017-Sep-13 11:31N 34°33' E 135°27'0 0.0
2017-Sep-13 11:00N 34°33' E 135°27'0 0.0
2017-Sep-13 10:30N 34°33' E 135°27'0 0.0
2017-Sep-13 10:01N 34°33' E 135°27'0 0.0
2017-Sep-13 09:30N 34°33' E 135°27'2 4.4
2017-Sep-13 09:00N 34°33' E 135°24'2 3.9
2017-Sep-13 08:31N 34°31' E 135°23'3 5.3
2017-Sep-13 08:00N 34°33' E 135°25'2 3.2
2017-Sep-13 07:30N 34°33' E 135°27'0 0.0
2017-Sep-13 07:00N 34°33' E 135°27'0 0.0
2017-Sep-13 06:30N 34°33' E 135°27'0 0.0
2017-Sep-13 06:01N 34°33' E 135°27'0 0.0
2017-Sep-13 05:30N 34°33' E 135°27'0 0.0
2017-Sep-13 05:00N 34°33' E 135°27'0 0.0
2017-Sep-13 04:29N 34°33' E 135°27'0 0.0
2017-Sep-13 03:59N 34°33' E 135°27'0 0.0
2017-Sep-13 03:29N 34°33' E 135°27'0 0.0
2017-Sep-13 03:01N 34°33' E 135°27'0 0.3
2017-Sep-13 01:31N 34°33' E 135°26'0 0.3
2017-Sep-13 01:00N 34°33' E 135°26'2 3.2
2017-Sep-13 00:30N 34°33' E 135°24'3 6.1
2017-Sep-13 00:00N 34°34' E 135°20'0 0.4
2017-Sep-12 23:31N 34°34' E 135°21'3 6.4
2017-Sep-12 22:59N 34°33' E 135°25'2 3.5
2017-Sep-12 22:30N 34°33' E 135°27'0 0.0
2017-Sep-12 22:00N 34°33' E 135°27'0 0.0
2017-Sep-12 21:30N 34°33' E 135°27'0 0.0
2017-Sep-12 21:00N 34°33' E 135°27'0 0.0
2017-Sep-12 20:30N 34°33' E 135°27'0 0.0
2017-Sep-12 20:01N 34°33' E 135°27'0 0.0
2017-Sep-12 19:27N 34°33' E 135°27'0 0.0
2017-Sep-12 19:00N 34°33' E 135°27'0 0.0
2017-Sep-12 18:31N 34°33' E 135°27'0 0.0
2017-Sep-12 17:59N 34°33' E 135°27'0 0.0
2017-Sep-12 17:30N 34°33' E 135°27'0 0.0
2017-Sep-12 17:00N 34°33' E 135°27'0 0.0
2017-Sep-12 16:31N 34°33' E 135°27'0 0.0
2017-Sep-12 16:00N 34°33' E 135°27'0 0.0
2017-Sep-12 15:30N 34°33' E 135°27'0 0.0
2017-Sep-12 15:00N 34°33' E 135°27'0 0.0
2017-Sep-12 14:31N 34°33' E 135°27'0 0.0
2017-Sep-12 14:01N 34°33' E 135°27'0 0.0
2017-Sep-12 13:31N 34°33' E 135°27'0 0.0
2017-Sep-12 13:00N 34°33' E 135°27'0 0.0
2017-Sep-12 12:30N 34°33' E 135°27'0 0.0
2017-Sep-12 12:01N 34°33' E 135°27'0 0.0
2017-Sep-12 11:31N 34°33' E 135°27'0 0.0
2017-Sep-12 11:01N 34°33' E 135°27'0 0.0
2017-Sep-12 10:31N 34°33' E 135°27'2 4.7
2017-Sep-12 10:00N 34°34' E 135°24'510.4
2017-Sep-12 09:30N 34°39' E 135°25'0 0.3
2017-Sep-12 09:00N 34°39' E 135°25'0 0.2
2017-Sep-12 08:30N 34°39' E 135°25'0 0.2
2017-Sep-12 08:00N 34°39' E 135°25'4 7.5
2017-Sep-12 07:30N 34°36' E 135°23'4 7.4
2017-Sep-12 07:00N 34°33' E 135°26'0 0.5
2017-Sep-12 06:30N 34°33' E 135°27'0 0.0
2017-Sep-12 06:00N 34°33' E 135°27'0 0.0
2017-Sep-12 05:30N 34°33' E 135°27'0 0.0
2017-Sep-12 05:00N 34°33' E 135°27'0 0.0
2017-Sep-12 04:30N 34°33' E 135°27'0 0.0
2017-Sep-12 04:00N 34°33' E 135°27'0 0.0
2017-Sep-12 03:30N 34°33' E 135°27'0 0.0
2017-Sep-12 03:00N 34°33' E 135°27'0 0.0
2017-Sep-12 02:30N 34°33' E 135°27'0 0.0
2017-Sep-12 01:10N 34°33' E 135°27'0 0.0
2017-Sep-12 00:25N 34°33' E 135°27'0 0.0
2017-Sep-11 23:59N 34°33' E 135°27'0 0.0
2017-Sep-11 23:30N 34°33' E 135°27'0 0.0
2017-Sep-11 22:05N 34°33' E 135°27'0 0.1
2017-Sep-11 22:00N 34°33' E 135°27'0 0.0
2017-Sep-11 21:28N 34°33' E 135°27'0 0.0
2017-Sep-11 21:00N 34°33' E 135°27'0 0.0
2017-Sep-11 20:25N 34°33' E 135°27'0 0.0
2017-Sep-11 19:58N 34°33' E 135°27'0 0.0
2017-Sep-11 19:28N 34°33' E 135°27'0 0.0
2017-Sep-11 18:59N 34°33' E 135°27'0 0.0
2017-Sep-11 18:30N 34°33' E 135°27'0 0.0
2017-Sep-11 17:57N 34°33' E 135°27'0 0.0
2017-Sep-11 17:26N 34°33' E 135°27'0 0.0
2017-Sep-11 15:49N 34°33' E 135°27'0 0.0
2017-Sep-11 15:29N 34°33' E 135°27'0 0.0
2017-Sep-11 14:36N 34°33' E 135°27'0 0.0
2017-Sep-11 14:20N 34°33' E 135°27'0 0.0
2017-Sep-11 13:40N 34°33' E 135°27'0 0.0
2017-Sep-11 13:30N 34°33' E 135°27'0 0.0
2017-Sep-11 12:55N 34°33' E 135°27'0 0.0
2017-Sep-11 12:30N 34°33' E 135°27'0 0.0
2017-Sep-11 11:50N 34°33' E 135°27'0 0.0
2017-Sep-11 11:15N 34°33' E 135°27'2 6.9
2017-Sep-11 10:59N 34°33' E 135°24'712.9
2017-Sep-11 10:28N 34°28' E 135°19'612.2
2017-Sep-11 09:58N 34°24' E 135°14'1111.9
2017-Sep-11 09:01N 34°17' E 135°03'111.6
2017-Sep-11 08:56N 34°16' E 135°03'613.8
2017-Sep-11 08:30N 34°11' E 134°59'4 0.7
2017-Sep-11 02:55N 34°09' E 134°55'410.0
2017-Sep-11 02:30N 34°12' E 134°58'5 9.4
2017-Sep-11 01:59N 34°16' E 135°02'8 9.0
2017-Sep-11 01:08N 34°22' E 135°08'210.0
2017-Sep-11 00:58N 34°23' E 135°10'510.5
2017-Sep-11 00:30N 34°25' E 135°15'510.2
2017-Sep-11 00:00N 34°29' E 135°19'611.4
2017-Sep-10 23:30N 34°33' E 135°23'3 5.1
2017-Sep-10 23:00N 34°33' E 135°27'0 0.0
2017-Sep-10 22:30N 34°33' E 135°27'0 0.0
2017-Sep-10 22:00N 34°33' E 135°27'0 0.0
2017-Sep-10 21:30N 34°33' E 135°27'0 0.0
2017-Sep-10 21:00N 34°33' E 135°27'0 0.0
2017-Sep-10 20:30N 34°33' E 135°27'  
Track history (hours):
 
Tides and Currents Weather Stations Pressure Air Temp Water Temp Dewpoint Dewpoint Depression Visibility Wind Speed Wind Dir Waves Ship Positions

Triton

Last reported at 2017-Sep-20 20:25 UTC. Time now 2017-Sep-24 04:57 UTC.
Position N 34°35' E 134°51'.

Length 42 m; draft 3.5 m.

Type: Tug. MMSI: 431000673.

Date/timePositionNaut miles runAvg speedWind from/ knotsBaromVisibWave heightAir tempDewpointWater temp
2017-Sep-20 20:25N 34°35' E 134°51'614.3
2017-Sep-20 20:00N 34°37' E 134°57'5 9.0
2017-Sep-20 19:30N 34°37' E 135°03'4 7.5
2017-Sep-20 19:01N 34°35' E 135°07'3 5.9
2017-Sep-20 18:31N 34°33' E 135°09'611.3
2017-Sep-20 17:59N 34°28' E 135°06'711.0
2017-Sep-20 17:21N 34°21' E 135°02'512.0
2017-Sep-20 16:56N 34°17' E 134°60'511.7
2017-Sep-20 16:30N 34°12' E 134°60'3 5.2
2017-Sep-20 16:00N 34°12' E 135°03'4 8.8
2017-Sep-20 15:30N 34°13' E 135°08'1 1.1
2017-Sep-20 15:00N 34°13' E 135°09'0 0.0
2017-Sep-20 14:00N 34°13' E 135°09'0 0.0
2017-Sep-20 13:30N 34°13' E 135°09'0 0.0
2017-Sep-20 13:00N 34°13' E 135°09'0 0.0
2017-Sep-20 12:30N 34°13' E 135°09'0 0.0
2017-Sep-20 12:00N 34°13' E 135°09'0 0.0
2017-Sep-20 11:30N 34°13' E 135°09'0 0.0
2017-Sep-20 11:00N 34°13' E 135°09'0 0.0
2017-Sep-20 10:30N 34°13' E 135°09'0 0.0
2017-Sep-20 10:00N 34°13' E 135°09'0 0.0
2017-Sep-20 09:30N 34°13' E 135°09'0 0.0
2017-Sep-20 09:00N 34°13' E 135°09'0 0.0
2017-Sep-20 08:30N 34°13' E 135°09'0 0.0
2017-Sep-20 08:00N 34°13' E 135°09'0 0.0
2017-Sep-20 07:30N 34°13' E 135°09'0 0.0
2017-Sep-20 07:00N 34°13' E 135°09'0 0.0
2017-Sep-20 06:30N 34°13' E 135°09'0 0.0
2017-Sep-20 06:00N 34°13' E 135°09'0 0.0
2017-Sep-20 05:30N 34°13' E 135°09'0 0.0
2017-Sep-20 05:00N 34°13' E 135°09'0 0.0
2017-Sep-20 04:30N 34°13' E 135°09'0 0.0
2017-Sep-20 04:00N 34°13' E 135°09'0 0.0
2017-Sep-20 03:30N 34°13' E 135°09'0 0.0
2017-Sep-20 03:00N 34°13' E 135°09'0 0.0
2017-Sep-20 02:30N 34°13' E 135°09'0 0.0
2017-Sep-20 02:00N 34°13' E 135°09'0 0.0
2017-Sep-20 01:30N 34°13' E 135°09'0 0.0
2017-Sep-20 01:00N 34°13' E 135°09'0 0.0
2017-Sep-20 00:30N 34°13' E 135°09'0 0.0
2017-Sep-20 00:00N 34°13' E 135°09'0 0.0
2017-Sep-19 23:30N 34°13' E 135°09'0 0.0
2017-Sep-19 23:00N 34°13' E 135°09'0 0.0
2017-Sep-19 22:30N 34°13' E 135°09'0 0.0
2017-Sep-19 22:00N 34°13' E 135°09'0 0.0
2017-Sep-19 21:30N 34°13' E 135°09'0 0.0
2017-Sep-19 21:00N 34°13' E 135°09'0 0.0
2017-Sep-19 20:30N 34°13' E 135°09'0 0.0
2017-Sep-19 20:00N 34°13' E 135°09'0 0.0
2017-Sep-19 19:30N 34°13' E 135°09'0 0.0
2017-Sep-19 19:00N 34°13' E 135°09'0 0.0
2017-Sep-19 18:30N 34°13' E 135°09'0 0.0
2017-Sep-19 18:00N 34°13' E 135°09'0 0.0
2017-Sep-19 17:30N 34°13' E 135°09'0 0.0
2017-Sep-19 17:00N 34°13' E 135°09'0 0.0
2017-Sep-19 16:30N 34°13' E 135°09'0 0.0
2017-Sep-19 16:00N 34°13' E 135°09'0 0.0
2017-Sep-19 15:30N 34°13' E 135°09'0 0.0
2017-Sep-19 15:00N 34°13' E 135°09'0 0.0
2017-Sep-19 14:30N 34°13' E 135°09'0 0.0
2017-Sep-19 14:00N 34°13' E 135°09'0 0.0
2017-Sep-19 13:30N 34°13' E 135°09'0 0.0
2017-Sep-19 13:00N 34°13' E 135°09'0 0.0
2017-Sep-19 12:30N 34°13' E 135°09'0 0.0
2017-Sep-19 12:00N 34°13' E 135°09'0 0.0
2017-Sep-19 11:30N 34°13' E 135°09'0 0.0
2017-Sep-19 11:00N 34°13' E 135°09'0 0.0
2017-Sep-19 10:30N 34°13' E 135°09'0 0.0
2017-Sep-19 10:00N 34°13' E 135°09'0 0.0
2017-Sep-19 09:30N 34°13' E 135°09'0 0.0
2017-Sep-19 09:00N 34°13' E 135°09'2 4.4
2017-Sep-19 08:30N 34°12' E 135°06'714.2
2017-Sep-19 08:00N 34°07' E 135°01'10 2.0
2017-Sep-19 03:17N 34°04' E 134°50'310.5
2017-Sep-19 02:57N 34°06' E 134°53'511.3
2017-Sep-19 02:30N 34°10' E 134°57'511.0
2017-Sep-19 02:00N 34°14' E 135°01'811.5
2017-Sep-19 01:21N 34°20' E 135°06'411.3
2017-Sep-19 00:59N 34°22' E 135°11'510.8
2017-Sep-19 00:30N 34°25' E 135°16'510.7
2017-Sep-19 00:00N 34°29' E 135°20'5 9.6
2017-Sep-18 23:30N 34°33' E 135°24'2 4.5
2017-Sep-18 23:00N 34°33' E 135°27'0 0.0
2017-Sep-18 22:26N 34°33' E 135°27'0 0.0
2017-Sep-18 22:00N 34°33' E 135°27'0 0.0
2017-Sep-18 21:30N 34°33' E 135°27'0 0.0
2017-Sep-18 21:00N 34°33' E 135°27'0 0.0
2017-Sep-18 20:30N 34°33' E 135°27'0 0.0
2017-Sep-18 20:00N 34°33' E 135°27'0 0.0
2017-Sep-18 19:30N 34°33' E 135°27'0 0.0
2017-Sep-18 19:00N 34°33' E 135°27'0 0.0
2017-Sep-18 18:30N 34°33' E 135°27'0 0.0
2017-Sep-18 18:00N 34°33' E 135°27'0 0.0
2017-Sep-18 17:30N 34°33' E 135°27'0 0.0
2017-Sep-18 17:00N 34°33' E 135°27'0 0.0
2017-Sep-18 16:30N 34°33' E 135°27'0 0.0
2017-Sep-18 16:00N 34°33' E 135°27'0 0.0
2017-Sep-18 15:30N 34°33' E 135°27'0 0.0
2017-Sep-18 15:00N 34°33' E 135°27'0 0.0
2017-Sep-18 14:30N 34°33' E 135°27'0 0.0
2017-Sep-18 14:00N 34°33' E 135°27'0 0.0
2017-Sep-18 13:30N 34°33' E 135°27'0 0.0
2017-Sep-18 13:00N 34°33' E 135°27'0 0.0
2017-Sep-18 12:30N 34°33' E 135°27'0 0.0
2017-Sep-18 12:00N 34°33' E 135°27'0 0.0
2017-Sep-18 11:30N 34°33' E 135°27'0 0.0
2017-Sep-18 11:00N 34°33' E 135°27'0 0.0
2017-Sep-18 10:30N 34°33' E 135°27'0 0.0
2017-Sep-18 10:00N 34°33' E 135°27'3 6.5
2017-Sep-18 09:31N 34°35' E 135°24'4 6.6
2017-Sep-18 08:55N 34°38' E 135°26'0 0.9
2017-Sep-18 08:30N 34°38' E 135°27'2 4.9
2017-Sep-18 08:00N 34°38' E 135°24'4 7.8
2017-Sep-18 07:30N 34°34' E 135°24'2 4.9
2017-Sep-18 07:00N 34°33' E 135°27'0 0.0
2017-Sep-18 06:30N 34°33' E 135°27'0 0.0
2017-Sep-18 06:00N 34°33' E 135°27'0 0.0
2017-Sep-18 05:27N 34°33' E 135°27'0 0.0
2017-Sep-18 05:00N 34°33' E 135°27'3 5.4
2017-Sep-18 04:30N 34°32' E 135°24'2 3.1
2017-Sep-18 04:00N 34°31' E 135°23'1 1.5
2017-Sep-18 03:30N 34°32' E 135°23'3 6.0
2017-Sep-18 03:00N 34°33' E 135°26'1 1.3
2017-Sep-18 02:30N 34°33' E 135°27'0 0.0
2017-Sep-18 02:00N 34°33' E 135°27'0 0.0
2017-Sep-18 01:30N 34°33' E 135°27'0 0.0
2017-Sep-18 01:00N 34°33' E 135°27'0 0.0
2017-Sep-18 00:30N 34°33' E 135°27'0 0.0
2017-Sep-18 00:00N 34°33' E 135°27'0 0.0
2017-Sep-17 23:30N 34°33' E 135°27'0 0.0
2017-Sep-17 23:00N 34°33' E 135°27'0 0.0
2017-Sep-17 22:30N 34°33' E 135°27'0 0.0
2017-Sep-17 22:00N 34°33' E 135°27'0 0.0
2017-Sep-17 21:30N 34°33' E 135°27'0 0.0
2017-Sep-17 21:00N 34°33' E 135°27'0 0.0
2017-Sep-17 20:30N 34°33' E 135°27'0 0.0
2017-Sep-17 20:00N 34°33' E 135°27'0 0.0
2017-Sep-17 19:30N 34°33' E 135°27'0 0.0
2017-Sep-17 19:00N 34°33' E 135°27'0 0.0
2017-Sep-17 18:30N 34°33' E 135°27'0 0.0
2017-Sep-17 18:00N 34°33' E 135°27'0 0.0
2017-Sep-17 17:30N 34°33' E 135°27'0 0.0
2017-Sep-17 17:00N 34°33' E 135°27'0 0.0
2017-Sep-17 16:30N 34°33' E 135°27'0 0.0
2017-Sep-17 16:00N 34°33' E 135°27'0 0.0
2017-Sep-17 15:30N 34°33' E 135°27'0 0.0
2017-Sep-17 15:00N 34°33' E 135°27'0 0.0
2017-Sep-17 14:30N 34°33' E 135°27'0 0.0
2017-Sep-17 14:00N 34°33' E 135°27'0 0.0
2017-Sep-17 13:30N 34°33' E 135°27'0 0.0
2017-Sep-17 13:00N 34°33' E 135°27'0 0.0
2017-Sep-17 12:30N 34°33' E 135°27'0 0.0
2017-Sep-17 12:00N 34°33' E 135°27'0 0.0
2017-Sep-17 11:30N 34°33' E 135°27'0 0.0
2017-Sep-17 11:00N 34°33' E 135°27'0 0.0
2017-Sep-17 10:30N 34°33' E 135°27'0 0.0
2017-Sep-17 10:00N 34°33' E 135°27'0 0.0
2017-Sep-17 09:30N 34°33' E 135°27'0 0.0
2017-Sep-17 09:00N 34°33' E 135°27'0 0.0
2017-Sep-17 08:30N 34°33' E 135°27'0 0.0
2017-Sep-17 08:00N 34°33' E 135°27'0 0.0
2017-Sep-17 07:30N 34°33' E 135°27'0 0.0
2017-Sep-17 07:00N 34°33' E 135°27'0 0.0
2017-Sep-17 06:30N 34°33' E 135°27'0 0.0
2017-Sep-17 06:00N 34°33' E 135°27'0 0.0
2017-Sep-17 05:30N 34°33' E 135°27'0 0.0
2017-Sep-17 05:00N 34°33' E 135°27'0 0.0
2017-Sep-17 04:30N 34°33' E 135°27'0 0.0
2017-Sep-17 04:00N 34°33' E 135°27'0 0.0
2017-Sep-17 03:30N 34°33' E 135°27'0 0.0
2017-Sep-17 03:00N 34°33' E 135°27'0 0.0
2017-Sep-17 02:30N 34°33' E 135°27'0 0.0
2017-Sep-17 02:00N 34°33' E 135°27'0 0.0
2017-Sep-17 01:30N 34°33' E 135°27'0 0.0
2017-Sep-17 01:00N 34°33' E 135°27'0 0.0
2017-Sep-17 00:29N 34°33' E 135°27'3 6.3
2017-Sep-16 23:57N 34°31' E 135°23'0 1.1
2017-Sep-16 23:31N 34°31' E 135°23'3 5.7
2017-Sep-16 23:00N 34°33' E 135°25'2 3.4
2017-Sep-16 22:30N 34°33' E 135°27'0 0.0
2017-Sep-16 22:00N 34°33' E 135°27'0 0.0
2017-Sep-16 21:30N 34°33' E 135°27'0 0.0
2017-Sep-16 21:00N 34°33' E 135°27'0 0.0
2017-Sep-16 20:30N 34°33' E 135°27'0 0.0
2017-Sep-16 20:00N 34°33' E 135°27'0 0.0
2017-Sep-16 19:30N 34°33' E 135°27'0 0.0
2017-Sep-16 19:00N 34°33' E 135°27'0 0.0
2017-Sep-16 18:30N 34°33' E 135°27'0 0.0
2017-Sep-16 18:00N 34°33' E 135°27'0 0.0
2017-Sep-16 17:30N 34°33' E 135°27'0 0.0
2017-Sep-16 17:00N 34°33' E 135°27'0 0.0
2017-Sep-16 16:30N 34°33' E 135°27'0 0.0
2017-Sep-16 16:00N 34°33' E 135°27'0 0.0
2017-Sep-16 15:30N 34°33' E 135°27'0 0.0
2017-Sep-16 15:00N 34°33' E 135°27'0 0.0
2017-Sep-16 14:30N 34°33' E 135°27'0 0.0
2017-Sep-16 14:00N 34°33' E 135°27'0 0.0
2017-Sep-16 13:30N 34°33' E 135°27'0 0.0
2017-Sep-16 13:00N 34°33' E 135°27'1 2.7
2017-Sep-16 12:30N 34°33' E 135°25'712.9
2017-Sep-16 11:59N 34°29' E 135°19'713.1
2017-Sep-16 11:29N 34°24' E 135°14'713.2
2017-Sep-16 10:59N 34°21' E 135°07'613.0
2017-Sep-16 10:30N 34°16' E 135°02'714.0
2017-Sep-16 10:00N 34°10' E 134°58'3 0.1
2017-Sep-15 02:22N 34°11' E 134°54'512.7
2017-Sep-15 02:00N 34°14' E 134°59'711.4
2017-Sep-15 01:23N 34°19' E 135°05'511.4
2017-Sep-15 00:59N 34°22' E 135°09'611.6
2017-Sep-15 00:28N 34°25' E 135°15'511.4
2017-Sep-14 23:59N 34°29' E 135°19'510.8
2017-Sep-14 23:30N 34°33' E 135°24'2 4.9
2017-Sep-14 23:00N 34°33' E 135°27'0 0.0
2017-Sep-14 22:23N 34°33' E 135°27'0 0.0
2017-Sep-14 21:49N 34°33' E 135°27'0 0.0
2017-Sep-14 21:18N 34°33' E 135°27'0 0.0
2017-Sep-14 20:58N 34°33' E 135°27'0 0.0
2017-Sep-14 20:29N 34°33' E 135°27'0 0.0
2017-Sep-14 19:59N 34°33' E 135°27'0 0.0
2017-Sep-14 14:19N 34°33' E 135°27'0 0.0
2017-Sep-14 13:57N 34°33' E 135°27'0 0.0
2017-Sep-14 13:28N 34°33' E 135°27'0 0.0
2017-Sep-14 13:00N 34°33' E 135°27'0 0.0
2017-Sep-14 12:30N 34°33' E 135°27'0 0.0
2017-Sep-14 12:00N 34°33' E 135°27'0 0.0
2017-Sep-14 11:30N 34°33' E 135°27'0 0.0
2017-Sep-14 11:00N 34°33' E 135°27'0 0.0
2017-Sep-14 09:17N 34°33' E 135°27'0 0.0
2017-Sep-14 07:50N 34°33' E 135°27'0 0.0
2017-Sep-14 07:30N 34°33' E 135°27'0 0.0
2017-Sep-13 21:24N 34°33' E 135°27'0 0.0
2017-Sep-13 20:57N 34°33' E 135°27'0 0.0
2017-Sep-13 20:30N 34°33' E 135°27'0 0.0
2017-Sep-13 19:58N 34°33' E 135°27'0 0.0
2017-Sep-13 19:30N 34°33' E 135°27'0 0.0
2017-Sep-13 18:09N 34°33' E 135°27'0 0.0
2017-Sep-13 18:00N 34°33' E 135°27'0 0.0
2017-Sep-13 17:30N 34°33' E 135°27'0 0.0
2017-Sep-13 17:00N 34°33' E 135°27'0 0.0
2017-Sep-13 16:26N 34°33' E 135°27'0 0.0
2017-Sep-13 15:55N 34°33' E 135°27'0 0.0
2017-Sep-13 15:30N 34°33' E 135°27'0 0.0
2017-Sep-13 15:00N 34°33' E 135°27'0 0.0
2017-Sep-13 14:30N 34°33' E 135°27'0 0.0
2017-Sep-13 13:59N 34°33' E 135°27'0 0.0
2017-Sep-13 13:29N 34°33' E 135°27'0 0.0
2017-Sep-13 13:00N 34°33' E 135°27'0 0.0
2017-Sep-13 12:27N 34°33' E 135°27'0 0.0
2017-Sep-13 12:00N 34°33' E 135°27'0 0.0
2017-Sep-13 11:31N 34°33' E 135°27'0 0.0
2017-Sep-13 11:00N 34°33' E 135°27'0 0.0
2017-Sep-13 10:30N 34°33' E 135°27'0 0.0
2017-Sep-13 10:01N 34°33' E 135°27'0 0.0
2017-Sep-13 09:30N 34°33' E 135°27'2 4.4
2017-Sep-13 09:00N 34°33' E 135°24'2 3.9
2017-Sep-13 08:31N 34°31' E 135°23'3 5.3
2017-Sep-13 08:00N 34°33' E 135°25'2 3.2
2017-Sep-13 07:30N 34°33' E 135°27'0 0.0
2017-Sep-13 07:00N 34°33' E 135°27'0 0.0
2017-Sep-13 06:30N 34°33' E 135°27'0 0.0
2017-Sep-13 06:01N 34°33' E 135°27'0 0.0
2017-Sep-13 05:30N 34°33' E 135°27'0 0.0
2017-Sep-13 05:00N 34°33' E 135°27'0 0.0
2017-Sep-13 04:29N 34°33' E 135°27'0 0.0
2017-Sep-13 03:59N 34°33' E 135°27'0 0.0
2017-Sep-13 03:29N 34°33' E 135°27'0 0.0
2017-Sep-13 03:01N 34°33' E 135°27'0 0.3
2017-Sep-13 01:31N 34°33' E 135°26'0 0.3
2017-Sep-13 01:00N 34°33' E 135°26'2 3.2
2017-Sep-13 00:30N 34°33' E 135°24'3 6.1
2017-Sep-13 00:00N 34°34' E 135°20'0 0.4
2017-Sep-12 23:31N 34°34' E 135°21'3 6.4
2017-Sep-12 22:59N 34°33' E 135°25'2 3.5
2017-Sep-12 22:30N 34°33' E 135°27'0 0.0
2017-Sep-12 22:00N 34°33' E 135°27'0 0.0
2017-Sep-12 21:30N 34°33' E 135°27'0 0.0
2017-Sep-12 21:00N 34°33' E 135°27'0 0.0
2017-Sep-12 20:30N 34°33' E 135°27'0 0.0
2017-Sep-12 20:01N 34°33' E 135°27'0 0.0
2017-Sep-12 19:27N 34°33' E 135°27'0 0.0
2017-Sep-12 19:00N 34°33' E 135°27'0 0.0
2017-Sep-12 18:31N 34°33' E 135°27'0 0.0
2017-Sep-12 17:59N 34°33' E 135°27'0 0.0
2017-Sep-12 17:30N 34°33' E 135°27'0 0.0
2017-Sep-12 17:00N 34°33' E 135°27'0 0.0
2017-Sep-12 16:31N 34°33' E 135°27'0 0.0
2017-Sep-12 16:00N 34°33' E 135°27'0 0.0
2017-Sep-12 15:30N 34°33' E 135°27'0 0.0
2017-Sep-12 15:00N 34°33' E 135°27'0 0.0
2017-Sep-12 14:31N 34°33' E 135°27'0 0.0
2017-Sep-12 14:01N 34°33' E 135°27'0 0.0
2017-Sep-12 13:31N 34°33' E 135°27'0 0.0
2017-Sep-12 13:00N 34°33' E 135°27'0 0.0
2017-Sep-12 12:30N 34°33' E 135°27'0 0.0
2017-Sep-12 12:01N 34°33' E 135°27'0 0.0
2017-Sep-12 11:31N 34°33' E 135°27'0 0.0
2017-Sep-12 11:01N 34°33' E 135°27'0 0.0
2017-Sep-12 10:31N 34°33' E 135°27'2 4.7
2017-Sep-12 10:00N 34°34' E 135°24'510.4
2017-Sep-12 09:30N 34°39' E 135°25'0 0.3
2017-Sep-12 09:00N 34°39' E 135°25'0 0.2
2017-Sep-12 08:30N 34°39' E 135°25'0 0.2
2017-Sep-12 08:00N 34°39' E 135°25'4 7.5
2017-Sep-12 07:30N 34°36' E 135°23'4 7.4
2017-Sep-12 07:00N 34°33' E 135°26'0 0.5
2017-Sep-12 06:30N 34°33' E 135°27'0 0.0
2017-Sep-12 06:00N 34°33' E 135°27'0 0.0
2017-Sep-12 05:30N 34°33' E 135°27'0 0.0
2017-Sep-12 05:00N 34°33' E 135°27'0 0.0
2017-Sep-12 04:30N 34°33' E 135°27'0 0.0
2017-Sep-12 04:00N 34°33' E 135°27'0 0.0
2017-Sep-12 03:30N 34°33' E 135°27'0 0.0
2017-Sep-12 03:00N 34°33' E 135°27'0 0.0
2017-Sep-12 02:30N 34°33' E 135°27'0 0.0
2017-Sep-12 01:10N 34°33' E 135°27'0 0.0
2017-Sep-12 00:25N 34°33' E 135°27'0 0.0
2017-Sep-11 23:59N 34°33' E 135°27'0 0.0
2017-Sep-11 23:30N 34°33' E 135°27'0 0.0
2017-Sep-11 22:05N 34°33' E 135°27'0 0.1
2017-Sep-11 22:00N 34°33' E 135°27'0 0.0
2017-Sep-11 21:28N 34°33' E 135°27'0 0.0
2017-Sep-11 21:00N 34°33' E 135°27'0 0.0
2017-Sep-11 20:25N 34°33' E 135°27'0 0.0
2017-Sep-11 19:58N 34°33' E 135°27'0 0.0
2017-Sep-11 19:28N 34°33' E 135°27'0 0.0
2017-Sep-11 18:59N 34°33' E 135°27'0 0.0
2017-Sep-11 18:30N 34°33' E 135°27'0 0.0
2017-Sep-11 17:57N 34°33' E 135°27'0 0.0
2017-Sep-11 17:26N 34°33' E 135°27'0 0.0
2017-Sep-11 15:49N 34°33' E 135°27'0 0.0
2017-Sep-11 15:29N 34°33' E 135°27'0 0.0
2017-Sep-11 14:36N 34°33' E 135°27'0 0.0
2017-Sep-11 14:20N 34°33' E 135°27'0 0.0
2017-Sep-11 13:40N 34°33' E 135°27'0 0.0
2017-Sep-11 13:30N 34°33' E 135°27'0 0.0
2017-Sep-11 12:55N 34°33' E 135°27'0 0.0
2017-Sep-11 12:30N 34°33' E 135°27'0 0.0
2017-Sep-11 11:50N 34°33' E 135°27'0 0.0
2017-Sep-11 11:15N 34°33' E 135°27'2 6.9
2017-Sep-11 10:59N 34°33' E 135°24'712.9
2017-Sep-11 10:28N 34°28' E 135°19'612.2
2017-Sep-11 09:58N 34°24' E 135°14'1111.9
2017-Sep-11 09:01N 34°17' E 135°03'111.6
2017-Sep-11 08:56N 34°16' E 135°03'613.8
2017-Sep-11 08:30N 34°11' E 134°59'4 0.7
2017-Sep-11 02:55N 34°09' E 134°55'410.0
2017-Sep-11 02:30N 34°12' E 134°58'5 9.4
2017-Sep-11 01:59N 34°16' E 135°02'8 9.0
2017-Sep-11 01:08N 34°22' E 135°08'210.0
2017-Sep-11 00:58N 34°23' E 135°10'510.5
2017-Sep-11 00:30N 34°25' E 135°15'510.2
2017-Sep-11 00:00N 34°29' E 135°19'611.4
2017-Sep-10 23:30N 34°33' E 135°23'3 5.1
2017-Sep-10 23:00N 34°33' E 135°27'0 0.0
2017-Sep-10 22:30N 34°33' E 135°27'0 0.0
2017-Sep-10 22:00N 34°33' E 135°27'0 0.0
2017-Sep-10 21:30N 34°33' E 135°27'0 0.0
2017-Sep-10 21:00N 34°33' E 135°27'0 0.0
2017-Sep-10 20:30N 34°33' E 135°27'  

Dump ship's entire track history